Chesapeake, VA (23320)

2:22 AM EDT on April 26, 2017 (GMT -0400)
City Hall | | Change Station

Elev 20 ft 36.72 °N, 76.25 °W | Updated 2 minutes ago

Rain
Rain
62.5 °F
Feels Like 62.5 °F
N
0.0
Wind Variable Wind from NNW
Gusts 0.0 mph

Today
High -- | Low -- °F
--% Chance of Precip.
Yesterday
High -- | Low -- °F
Precip. -- in
Pressure 29.67 in
Visibility 10.0 miles
Clouds Scattered Clouds 600 ft
Scattered Clouds 1300 ft
Overcast 6500 ft
Dew Point 62 °F
Humidity 98%
Rainfall 0.00 in
Snow Depth Not available.
6:16 AM 7:49 PM
Waning Crescent, 0% visible
METAR KCPK 260615Z AUTO 00000KT 10SM RA SCT006 SCT013 OVC065 17/16 A2967 RMK AO2 T01660161
Pressure 29.67 in
Visibility 10.0 miles
Clouds Scattered Clouds 600 ft
Scattered Clouds 1300 ft
Overcast 6500 ft
Dew Point 62 °F
Humidity 98%
Rainfall 0.00 in
Snow Depth Not available.
6:16 AM 7:49 PM
Waning Crescent, 0% visible
METAR KCPK 260615Z AUTO 00000KT 10SM RA SCT006 SCT013 OVC065 17/16 A2967 RMK AO2 T01660161

Get Severe Weather Alerts

Thanks for signing up!

Be on the lookout for a verification email in your inbox.

You'll start receiving the daily forecast at 8 AM.

×

10-Day Weather Forecast

Almanac

Astronomy

Apr. 26, 2017 Rise Set
Actual Time
Civil Twilight
Nautical Twilight
Astronomical Twilight
Moon
Length of Visible Light
Length of Day
Tomorrow will be .
, % of the Moon is Illuminated

Today's Extremes

State Highs State Lows

Community

WunderPhotos

WunderBlog® & News

Nearby

Air Quality

  Air Quality AQ Index Pollutant
Not available.

Snow Depth

Station Depth Elevation

Earthquake Activity

City Distance Mag. Time & Date
Minimum magnitude displayed is 2.5.

Coastal Water Temperatures

Place Temperature

Stations

Nearby Weather Stations

Station Location Temp. Windchill Dew Point Humidity Wind Precip. Elev Updated Type
                   

Watches & Warnings

There are currently no watches in effect.